sensor_id;sensor_type;location;lat;lon;timestamp;P1;durP1;ratioP1;P2;durP2;ratioP2
3207;SDS011;1616;52.394;9.756;2022-12-05T00:02:24;95.80;;;32.80;;
3207;SDS011;1616;52.394;9.756;2022-12-05T00:04:49;79.07;;;31.90;;
3207;SDS011;1616;52.394;9.756;2022-12-05T00:07:15;89.93;;;32.30;;
3207;SDS011;1616;52.394;9.756;2022-12-05T00:09:41;88.13;;;32.90;;
3207;SDS011;1616;52.394;9.756;2022-12-05T00:12:07;84.40;;;33.17;;
3207;SDS011;1616;52.394;9.756;2022-12-05T00:14:33;85.50;;;33.37;;
3207;SDS011;1616;52.394;9.756;2022-12-05T00:16:59;89.93;;;31.67;;
3207;SDS011;1616;52.394;9.756;2022-12-05T00:19:25;76.80;;;30.10;;
3207;SDS011;1616;52.394;9.756;2022-12-05T00:21:50;83.07;;;33.30;;
3207;SDS011;1616;52.394;9.756;2022-12-05T00:24:16;77.47;;;32.53;;
3207;SDS011;1616;52.394;9.756;2022-12-05T00:26:43;91.17;;;33.03;;
3207;SDS011;1616;52.394;9.756;2022-12-05T00:29:09;74.40;;;31.43;;
3207;SDS011;1616;52.394;9.756;2022-12-05T00:31:35;81.13;;;31.77;;
3207;SDS011;1616;52.394;9.756;2022-12-05T00:34:05;77.37;;;32.10;;
3207;SDS011;1616;52.394;9.756;2022-12-05T00:36:31;75.60;;;30.20;;
3207;SDS011;1616;52.394;9.756;2022-12-05T00:38:59;85.87;;;31.47;;
3207;SDS011;1616;52.394;9.756;2022-12-05T00:41:27;75.67;;;31.30;;
3207;SDS011;1616;52.394;9.756;2022-12-05T00:43:54;88.27;;;32.73;;
3207;SDS011;1616;52.394;9.756;2022-12-05T00:46:23;81.23;;;34.00;;
3207;SDS011;1616;52.394;9.756;2022-12-05T00:48:54;75.23;;;30.93;;
3207;SDS011;1616;52.394;9.756;2022-12-05T00:51:25;78.10;;;32.17;;
3207;SDS011;1616;52.394;9.756;2022-12-05T00:53:56;81.27;;;30.07;;
3207;SDS011;1616;52.394;9.756;2022-12-05T00:56:23;77.63;;;32.20;;
3207;SDS011;1616;52.394;9.756;2022-12-05T00:58:51;76.97;;;32.10;;
3207;SDS011;1616;52.394;9.756;2022-12-05T01:01:21;78.07;;;32.33;;
3207;SDS011;1616;52.394;9.756;2022-12-05T01:03:50;86.13;;;31.17;;
3207;SDS011;1616;52.394;9.756;2022-12-05T01:06:19;78.20;;;31.50;;
3207;SDS011;1616;52.394;9.756;2022-12-05T01:08:45;71.03;;;30.73;;
3207;SDS011;1616;52.394;9.756;2022-12-05T01:11:13;76.67;;;32.30;;
3207;SDS011;1616;52.394;9.756;2022-12-05T01:13:41;71.80;;;31.83;;
3207;SDS011;1616;52.394;9.756;2022-12-05T01:16:30;88.73;;;33.00;;
3207;SDS011;1616;52.394;9.756;2022-12-05T01:18:56;76.47;;;31.17;;
3207;SDS011;1616;52.394;9.756;2022-12-05T01:21:23;70.00;;;29.17;;
3207;SDS011;1616;52.394;9.756;2022-12-05T01:23:49;74.03;;;30.60;;
3207;SDS011;1616;52.394;9.756;2022-12-05T01:26:17;82.27;;;30.20;;
3207;SDS011;1616;52.394;9.756;2022-12-05T01:28:45;60.87;;;26.97;;
3207;SDS011;1616;52.394;9.756;2022-12-05T01:33:50;62.33;;;27.87;;
3207;SDS011;1616;52.394;9.756;2022-12-05T01:36:18;61.73;;;26.57;;
3207;SDS011;1616;52.394;9.756;2022-12-05T01:38:44;59.07;;;26.00;;
3207;SDS011;1616;52.394;9.756;2022-12-05T01:41:11;70.93;;;27.00;;
3207;SDS011;1616;52.394;9.756;2022-12-05T01:43:55;72.07;;;29.00;;
3207;SDS011;1616;52.394;9.756;2022-12-05T01:46:30;66.17;;;28.27;;
3207;SDS011;1616;52.394;9.756;2022-12-05T01:49:18;65.83;;;28.00;;
3207;SDS011;1616;52.394;9.756;2022-12-05T01:51:52;67.50;;;28.60;;
3207;SDS011;1616;52.394;9.756;2022-12-05T01:54:22;58.77;;;25.90;;
3207;SDS011;1616;52.394;9.756;2022-12-05T01:57:10;65.80;;;28.27;;
3207;SDS011;1616;52.394;9.756;2022-12-05T01:59:37;72.23;;;28.13;;
3207;SDS011;1616;52.394;9.756;2022-12-05T02:02:05;72.30;;;27.93;;
3207;SDS011;1616;52.394;9.756;2022-12-05T02:04:36;67.77;;;27.27;;
3207;SDS011;1616;52.394;9.756;2022-12-05T02:07:07;59.00;;;23.80;;
3207;SDS011;1616;52.394;9.756;2022-12-05T02:09:33;68.27;;;28.20;;
3207;SDS011;1616;52.394;9.756;2022-12-05T02:12:01;62.07;;;26.33;;
3207;SDS011;1616;52.394;9.756;2022-12-05T02:14:32;60.47;;;27.23;;
3207;SDS011;1616;52.394;9.756;2022-12-05T02:17:19;61.73;;;25.40;;
3207;SDS011;1616;52.394;9.756;2022-12-05T02:25:21;68.50;;;27.37;;
3207;SDS011;1616;52.394;9.756;2022-12-05T02:28:13;64.27;;;27.00;;
3207;SDS011;1616;52.394;9.756;2022-12-05T02:30:57;71.17;;;27.90;;
3207;SDS011;1616;52.394;9.756;2022-12-05T02:33:34;64.13;;;25.27;;
3207;SDS011;1616;52.394;9.756;2022-12-05T02:36:10;58.27;;;26.30;;
3207;SDS011;1616;52.394;9.756;2022-12-05T02:41:34;57.30;;;26.10;;
3207;SDS011;1616;52.394;9.756;2022-12-05T02:44:24;56.97;;;25.17;;
3207;SDS011;1616;52.394;9.756;2022-12-05T02:46:57;53.47;;;25.53;;
3207;SDS011;1616;52.394;9.756;2022-12-05T02:49:25;62.83;;;26.53;;
3207;SDS011;1616;52.394;9.756;2022-12-05T02:51:57;59.73;;;26.37;;
3207;SDS011;1616;52.394;9.756;2022-12-05T02:54:28;61.77;;;27.77;;
3207;SDS011;1616;52.394;9.756;2022-12-05T02:57:01;64.90;;;28.87;;
3207;SDS011;1616;52.394;9.756;2022-12-05T02:59:28;58.03;;;26.50;;
3207;SDS011;1616;52.394;9.756;2022-12-05T03:01:54;64.10;;;25.70;;
3207;SDS011;1616;52.394;9.756;2022-12-05T03:04:21;59.90;;;26.57;;
3207;SDS011;1616;52.394;9.756;2022-12-05T03:09:42;60.43;;;26.67;;
3207;SDS011;1616;52.394;9.756;2022-12-05T03:12:13;57.80;;;25.70;;
3207;SDS011;1616;52.394;9.756;2022-12-05T03:14:50;57.37;;;24.20;;
3207;SDS011;1616;52.394;9.756;2022-12-05T03:17:24;51.10;;;23.77;;
3207;SDS011;1616;52.394;9.756;2022-12-05T03:22:32;52.37;;;23.63;;
3207;SDS011;1616;52.394;9.756;2022-12-05T03:25:02;59.13;;;23.50;;
3207;SDS011;1616;52.394;9.756;2022-12-05T03:30:18;53.60;;;23.20;;
3207;SDS011;1616;52.394;9.756;2022-12-05T03:35:43;49.17;;;23.00;;
3207;SDS011;1616;52.394;9.756;2022-12-05T03:38:32;52.93;;;23.17;;
3207;SDS011;1616;52.394;9.756;2022-12-05T03:41:08;53.17;;;23.20;;
3207;SDS011;1616;52.394;9.756;2022-12-05T03:46:47;42.80;;;21.60;;
3207;SDS011;1616;52.394;9.756;2022-12-05T03:49:21;49.10;;;22.70;;
3207;SDS011;1616;52.394;9.756;2022-12-05T03:51:56;47.90;;;22.13;;
3207;SDS011;1616;52.394;9.756;2022-12-05T03:54:39;43.13;;;22.33;;
3207;SDS011;1616;52.394;9.756;2022-12-05T03:57:11;44.20;;;21.10;;
3207;SDS011;1616;52.394;9.756;2022-12-05T03:59:54;48.23;;;21.70;;
3207;SDS011;1616;52.394;9.756;2022-12-05T04:02:27;41.67;;;20.70;;
3207;SDS011;1616;52.394;9.756;2022-12-05T04:05:05;44.57;;;21.20;;
3207;SDS011;1616;52.394;9.756;2022-12-05T04:07:34;43.93;;;20.90;;
3207;SDS011;1616;52.394;9.756;2022-12-05T04:10:04;48.03;;;22.37;;
3207;SDS011;1616;52.394;9.756;2022-12-05T04:12:36;41.10;;;21.50;;
3207;SDS011;1616;52.394;9.756;2022-12-05T04:15:07;45.27;;;22.20;;
3207;SDS011;1616;52.394;9.756;2022-12-05T04:20:13;42.93;;;20.47;;
3207;SDS011;1616;52.394;9.756;2022-12-05T04:23:01;50.47;;;22.40;;
3207;SDS011;1616;52.394;9.756;2022-12-05T04:25:29;44.90;;;21.07;;
3207;SDS011;1616;52.394;9.756;2022-12-05T04:31:15;43.47;;;21.30;;
3207;SDS011;1616;52.394;9.756;2022-12-05T04:33:47;43.67;;;21.10;;
3207;SDS011;1616;52.394;9.756;2022-12-05T04:36:21;38.67;;;20.53;;
3207;SDS011;1616;52.394;9.756;2022-12-05T04:42:02;41.60;;;19.30;;
3207;SDS011;1616;52.394;9.756;2022-12-05T04:44:36;40.27;;;19.53;;
3207;SDS011;1616;52.394;9.756;2022-12-05T04:47:06;36.40;;;19.90;;
3207;SDS011;1616;52.394;9.756;2022-12-05T04:49:34;36.07;;;19.37;;
3207;SDS011;1616;52.394;9.756;2022-12-05T04:52:03;44.00;;;19.83;;
3207;SDS011;1616;52.394;9.756;2022-12-05T04:54:42;42.60;;;18.27;;
3207;SDS011;1616;52.394;9.756;2022-12-05T04:57:36;38.20;;;19.93;;
3207;SDS011;1616;52.394;9.756;2022-12-05T05:00:10;41.80;;;19.97;;
3207;SDS011;1616;52.394;9.756;2022-12-05T05:02:56;40.83;;;20.03;;
3207;SDS011;1616;52.394;9.756;2022-12-05T05:05:29;35.43;;;17.80;;
3207;SDS011;1616;52.394;9.756;2022-12-05T05:07:56;34.30;;;18.33;;
3207;SDS011;1616;52.394;9.756;2022-12-05T05:10:33;40.00;;;18.27;;
3207;SDS011;1616;52.394;9.756;2022-12-05T05:13:06;39.40;;;18.60;;
3207;SDS011;1616;52.394;9.756;2022-12-05T05:15:31;42.70;;;19.00;;
3207;SDS011;1616;52.394;9.756;2022-12-05T05:17:58;35.30;;;17.47;;
3207;SDS011;1616;52.394;9.756;2022-12-05T05:20:24;33.87;;;18.00;;
3207;SDS011;1616;52.394;9.756;2022-12-05T05:22:52;41.70;;;19.33;;
3207;SDS011;1616;52.394;9.756;2022-12-05T05:25:21;34.90;;;19.27;;
3207;SDS011;1616;52.394;9.756;2022-12-05T05:27:52;37.47;;;17.80;;
3207;SDS011;1616;52.394;9.756;2022-12-05T05:30:19;37.90;;;18.83;;
3207;SDS011;1616;52.394;9.756;2022-12-05T05:32:46;36.47;;;18.90;;
3207;SDS011;1616;52.394;9.756;2022-12-05T05:35:13;39.60;;;19.77;;
3207;SDS011;1616;52.394;9.756;2022-12-05T05:37:39;32.30;;;17.17;;
3207;SDS011;1616;52.394;9.756;2022-12-05T05:40:06;34.67;;;18.43;;
3207;SDS011;1616;52.394;9.756;2022-12-05T05:42:35;33.87;;;18.87;;
3207;SDS011;1616;52.394;9.756;2022-12-05T05:45:06;40.87;;;20.70;;
3207;SDS011;1616;52.394;9.756;2022-12-05T05:47:33;39.43;;;17.30;;
3207;SDS011;1616;52.394;9.756;2022-12-05T05:49:58;34.67;;;18.63;;
3207;SDS011;1616;52.394;9.756;2022-12-05T05:52:24;34.70;;;18.67;;
3207;SDS011;1616;52.394;9.756;2022-12-05T05:54:51;40.53;;;18.50;;
3207;SDS011;1616;52.394;9.756;2022-12-05T05:57:17;33.93;;;17.30;;
3207;SDS011;1616;52.394;9.756;2022-12-05T05:59:43;36.20;;;17.77;;
3207;SDS011;1616;52.394;9.756;2022-12-05T06:02:09;34.30;;;17.93;;
3207;SDS011;1616;52.394;9.756;2022-12-05T06:04:35;36.47;;;18.20;;
3207;SDS011;1616;52.394;9.756;2022-12-05T06:07:02;31.17;;;15.57;;
3207;SDS011;1616;52.394;9.756;2022-12-05T06:09:28;31.03;;;17.53;;
3207;SDS011;1616;52.394;9.756;2022-12-05T06:11:53;32.43;;;16.40;;
3207;SDS011;1616;52.394;9.756;2022-12-05T06:14:26;30.33;;;16.33;;
3207;SDS011;1616;52.394;9.756;2022-12-05T06:16:51;28.20;;;16.83;;
3207;SDS011;1616;52.394;9.756;2022-12-05T06:19:18;34.30;;;16.73;;
3207;SDS011;1616;52.394;9.756;2022-12-05T06:21:43;31.87;;;16.43;;
3207;SDS011;1616;52.394;9.756;2022-12-05T06:24:09;32.53;;;16.07;;
3207;SDS011;1616;52.394;9.756;2022-12-05T06:26:35;33.97;;;17.57;;
3207;SDS011;1616;52.394;9.756;2022-12-05T06:29:01;36.70;;;18.10;;
3207;SDS011;1616;52.394;9.756;2022-12-05T06:31:26;35.33;;;17.80;;
3207;SDS011;1616;52.394;9.756;2022-12-05T06:33:58;30.90;;;15.77;;
3207;SDS011;1616;52.394;9.756;2022-12-05T06:36:25;25.47;;;14.73;;
3207;SDS011;1616;52.394;9.756;2022-12-05T06:38:52;28.43;;;14.60;;
3207;SDS011;1616;52.394;9.756;2022-12-05T06:41:19;24.10;;;14.87;;
3207;SDS011;1616;52.394;9.756;2022-12-05T06:43:45;25.03;;;14.13;;
3207;SDS011;1616;52.394;9.756;2022-12-05T06:46:12;30.50;;;15.97;;
3207;SDS011;1616;52.394;9.756;2022-12-05T06:48:39;22.97;;;14.57;;
3207;SDS011;1616;52.394;9.756;2022-12-05T06:51:07;19.43;;;13.03;;
3207;SDS011;1616;52.394;9.756;2022-12-05T06:53:34;20.37;;;13.90;;
3207;SDS011;1616;52.394;9.756;2022-12-05T06:56:01;26.27;;;13.40;;
3207;SDS011;1616;52.394;9.756;2022-12-05T06:58:28;27.43;;;14.23;;
3207;SDS011;1616;52.394;9.756;2022-12-05T07:00:54;23.83;;;13.33;;
3207;SDS011;1616;52.394;9.756;2022-12-05T07:03:39;23.33;;;12.97;;
3207;SDS011;1616;52.394;9.756;2022-12-05T07:06:06;22.33;;;13.43;;
3207;SDS011;1616;52.394;9.756;2022-12-05T07:08:32;24.50;;;14.00;;
3207;SDS011;1616;52.394;9.756;2022-12-05T07:10:58;18.57;;;13.17;;
3207;SDS011;1616;52.394;9.756;2022-12-05T07:13:24;23.00;;;13.17;;
3207;SDS011;1616;52.394;9.756;2022-12-05T07:15:50;19.60;;;13.80;;
3207;SDS011;1616;52.394;9.756;2022-12-05T07:18:16;21.87;;;14.50;;
3207;SDS011;1616;52.394;9.756;2022-12-05T07:20:43;27.53;;;14.47;;
3207;SDS011;1616;52.394;9.756;2022-12-05T07:23:09;19.57;;;14.17;;
3207;SDS011;1616;52.394;9.756;2022-12-05T07:25:41;25.37;;;13.90;;
3207;SDS011;1616;52.394;9.756;2022-12-05T07:28:07;27.40;;;14.87;;
3207;SDS011;1616;52.394;9.756;2022-12-05T07:30:33;22.57;;;13.13;;
3207;SDS011;1616;52.394;9.756;2022-12-05T07:32:59;23.03;;;14.87;;
3207;SDS011;1616;52.394;9.756;2022-12-05T07:35:25;20.63;;;14.10;;
3207;SDS011;1616;52.394;9.756;2022-12-05T07:37:50;22.40;;;13.17;;
3207;SDS011;1616;52.394;9.756;2022-12-05T07:40:16;21.97;;;13.13;;
3207;SDS011;1616;52.394;9.756;2022-12-05T07:42:42;21.63;;;13.20;;
3207;SDS011;1616;52.394;9.756;2022-12-05T07:45:08;27.53;;;13.27;;
3207;SDS011;1616;52.394;9.756;2022-12-05T07:47:34;20.03;;;13.50;;
3207;SDS011;1616;52.394;9.756;2022-12-05T07:50:00;23.67;;;13.27;;
3207;SDS011;1616;52.394;9.756;2022-12-05T07:52:26;23.97;;;12.80;;
3207;SDS011;1616;52.394;9.756;2022-12-05T07:54:52;23.77;;;13.63;;
3207;SDS011;1616;52.394;9.756;2022-12-05T07:57:18;25.37;;;13.40;;
3207;SDS011;1616;52.394;9.756;2022-12-05T07:59:43;27.57;;;14.50;;
3207;SDS011;1616;52.394;9.756;2022-12-05T08:02:09;18.67;;;13.50;;
3207;SDS011;1616;52.394;9.756;2022-12-05T08:04:35;20.33;;;14.00;;
3207;SDS011;1616;52.394;9.756;2022-12-05T08:07:01;21.83;;;13.50;;
3207;SDS011;1616;52.394;9.756;2022-12-05T08:09:26;18.73;;;13.20;;
3207;SDS011;1616;52.394;9.756;2022-12-05T08:11:52;19.30;;;13.67;;
3207;SDS011;1616;52.394;9.756;2022-12-05T08:14:18;29.20;;;14.07;;
3207;SDS011;1616;52.394;9.756;2022-12-05T08:16:44;18.53;;;12.60;;
3207;SDS011;1616;52.394;9.756;2022-12-05T08:19:10;22.23;;;13.43;;
3207;SDS011;1616;52.394;9.756;2022-12-05T08:21:37;22.80;;;13.80;;
3207;SDS011;1616;52.394;9.756;2022-12-05T08:24:04;22.93;;;14.30;;
3207;SDS011;1616;52.394;9.756;2022-12-05T08:26:30;20.47;;;13.40;;
3207;SDS011;1616;52.394;9.756;2022-12-05T08:28:58;18.60;;;13.10;;
3207;SDS011;1616;52.394;9.756;2022-12-05T08:31:27;26.63;;;15.00;;
3207;SDS011;1616;52.394;9.756;2022-12-05T08:33:55;18.13;;;12.93;;
3207;SDS011;1616;52.394;9.756;2022-12-05T08:36:22;21.50;;;13.03;;
3207;SDS011;1616;52.394;9.756;2022-12-05T08:38:54;21.70;;;13.50;;
3207;SDS011;1616;52.394;9.756;2022-12-05T08:41:21;20.83;;;14.10;;
3207;SDS011;1616;52.394;9.756;2022-12-05T08:43:52;23.70;;;15.47;;
3207;SDS011;1616;52.394;9.756;2022-12-05T08:46:19;16.60;;;11.40;;
3207;SDS011;1616;52.394;9.756;2022-12-05T08:48:45;23.97;;;14.27;;
3207;SDS011;1616;52.394;9.756;2022-12-05T08:51:11;22.70;;;15.10;;
3207;SDS011;1616;52.394;9.756;2022-12-05T08:53:38;26.13;;;13.87;;
3207;SDS011;1616;52.394;9.756;2022-12-05T08:56:05;17.20;;;12.50;;
3207;SDS011;1616;52.394;9.756;2022-12-05T08:58:32;20.10;;;12.23;;
3207;SDS011;1616;52.394;9.756;2022-12-05T09:01:09;20.27;;;13.27;;
3207;SDS011;1616;52.394;9.756;2022-12-05T09:03:37;18.47;;;12.87;;
3207;SDS011;1616;52.394;9.756;2022-12-05T09:06:04;21.53;;;13.53;;
3207;SDS011;1616;52.394;9.756;2022-12-05T09:08:34;20.33;;;13.87;;
3207;SDS011;1616;52.394;9.756;2022-12-05T09:11:05;20.90;;;13.40;;
3207;SDS011;1616;52.394;9.756;2022-12-05T09:13:35;17.97;;;12.80;;
3207;SDS011;1616;52.394;9.756;2022-12-05T09:16:06;19.03;;;11.63;;
3207;SDS011;1616;52.394;9.756;2022-12-05T09:18:32;17.53;;;12.87;;
3207;SDS011;1616;52.394;9.756;2022-12-05T09:21:03;19.50;;;12.47;;
3207;SDS011;1616;52.394;9.756;2022-12-05T09:23:30;19.30;;;12.90;;
3207;SDS011;1616;52.394;9.756;2022-12-05T09:25:56;15.60;;;12.70;;
3207;SDS011;1616;52.394;9.756;2022-12-05T09:28:25;22.97;;;13.30;;
3207;SDS011;1616;52.394;9.756;2022-12-05T09:30:55;21.13;;;14.43;;
3207;SDS011;1616;52.394;9.756;2022-12-05T09:33:22;19.40;;;13.03;;
3207;SDS011;1616;52.394;9.756;2022-12-05T09:35:47;19.70;;;13.30;;
3207;SDS011;1616;52.394;9.756;2022-12-05T09:38:13;21.27;;;13.43;;
3207;SDS011;1616;52.394;9.756;2022-12-05T09:40:40;15.03;;;10.90;;
3207;SDS011;1616;52.394;9.756;2022-12-05T09:43:07;17.13;;;11.47;;
3207;SDS011;1616;52.394;9.756;2022-12-05T09:45:42;15.37;;;11.13;;
3207;SDS011;1616;52.394;9.756;2022-12-05T09:48:18;14.07;;;11.43;;
3207;SDS011;1616;52.394;9.756;2022-12-05T09:50:53;14.50;;;10.63;;
3207;SDS011;1616;52.394;9.756;2022-12-05T10:01:12;16.10;;;10.73;;
3207;SDS011;1616;52.394;9.756;2022-12-05T10:12:29;17.33;;;10.73;;
3207;SDS011;1616;52.394;9.756;2022-12-05T10:17:49;13.20;;;10.07;;
3207;SDS011;1616;52.394;9.756;2022-12-05T10:23:20;13.10;;;9.70;;
3207;SDS011;1616;52.394;9.756;2022-12-05T10:25:55;13.63;;;9.60;;
3207;SDS011;1616;52.394;9.756;2022-12-05T10:30:52;16.47;;;10.07;;
3207;SDS011;1616;52.394;9.756;2022-12-05T10:33:22;12.03;;;10.13;;
3207;SDS011;1616;52.394;9.756;2022-12-05T10:35:52;11.23;;;9.40;;
3207;SDS011;1616;52.394;9.756;2022-12-05T10:38:22;14.37;;;9.53;;
3207;SDS011;1616;52.394;9.756;2022-12-05T10:40:54;11.03;;;9.07;;
3207;SDS011;1616;52.394;9.756;2022-12-05T10:43:27;11.50;;;8.30;;
3207;SDS011;1616;52.394;9.756;2022-12-05T10:45:55;9.77;;;8.20;;
3207;SDS011;1616;52.394;9.756;2022-12-05T10:48:21;12.60;;;8.73;;
3207;SDS011;1616;52.394;9.756;2022-12-05T10:50:49;11.63;;;8.30;;
3207;SDS011;1616;52.394;9.756;2022-12-05T10:53:31;8.93;;;8.03;;
3207;SDS011;1616;52.394;9.756;2022-12-05T10:59:09;9.30;;;7.90;;
3207;SDS011;1616;52.394;9.756;2022-12-05T11:01:37;11.90;;;8.60;;
3207;SDS011;1616;52.394;9.756;2022-12-05T11:04:33;9.60;;;7.00;;
3207;SDS011;1616;52.394;9.756;2022-12-05T11:07:05;10.63;;;7.90;;
3207;SDS011;1616;52.394;9.756;2022-12-05T11:09:32;8.63;;;7.73;;
3207;SDS011;1616;52.394;9.756;2022-12-05T11:12:19;10.60;;;8.40;;
3207;SDS011;1616;52.394;9.756;2022-12-05T11:14:56;10.90;;;8.70;;
3207;SDS011;1616;52.394;9.756;2022-12-05T11:17:28;9.97;;;8.10;;
3207;SDS011;1616;52.394;9.756;2022-12-05T11:19:59;8.67;;;7.77;;
3207;SDS011;1616;52.394;9.756;2022-12-05T11:22:32;17.70;;;8.33;;
3207;SDS011;1616;52.394;9.756;2022-12-05T11:24:59;11.63;;;9.27;;
3207;SDS011;1616;52.394;9.756;2022-12-05T11:27:29;13.13;;;7.57;;
3207;SDS011;1616;52.394;9.756;2022-12-05T11:29:58;9.70;;;8.50;;
3207;SDS011;1616;52.394;9.756;2022-12-05T11:32:44;14.63;;;8.13;;
3207;SDS011;1616;52.394;9.756;2022-12-05T11:37:54;10.30;;;8.37;;
3207;SDS011;1616;52.394;9.756;2022-12-05T11:53:57;6.57;;;5.90;;
3207;SDS011;1616;52.394;9.756;2022-12-05T12:02:28;10.63;;;6.40;;
3207;SDS011;1616;52.394;9.756;2022-12-05T12:05:20;9.60;;;6.17;;
3207;SDS011;1616;52.394;9.756;2022-12-05T12:21:39;6.10;;;5.50;;
3207;SDS011;1616;52.394;9.756;2022-12-05T12:34:40;6.30;;;5.80;;
3207;SDS011;1616;52.394;9.756;2022-12-05T12:40:26;8.73;;;6.27;;
3207;SDS011;1616;52.394;9.756;2022-12-05T12:50:51;7.60;;;6.57;;
3207;SDS011;1616;52.394;9.756;2022-12-05T12:53:40;12.80;;;6.93;;
3207;SDS011;1616;52.394;9.756;2022-12-05T12:58:53;7.13;;;6.40;;
3207;SDS011;1616;52.394;9.756;2022-12-05T13:04:19;7.30;;;6.40;;
3207;SDS011;1616;52.394;9.756;2022-12-05T13:12:10;8.97;;;7.70;;
3207;SDS011;1616;52.394;9.756;2022-12-05T13:14:46;7.30;;;6.70;;
3207;SDS011;1616;52.394;9.756;2022-12-05T13:17:17;19.27;;;7.50;;
3207;SDS011;1616;52.394;9.756;2022-12-05T13:19:49;7.87;;;7.17;;
3207;SDS011;1616;52.394;9.756;2022-12-05T13:22:19;6.93;;;6.37;;
3207;SDS011;1616;52.394;9.756;2022-12-05T13:24:50;7.80;;;7.03;;
3207;SDS011;1616;52.394;9.756;2022-12-05T13:27:17;7.27;;;6.53;;
3207;SDS011;1616;52.394;9.756;2022-12-05T13:29:55;7.47;;;6.77;;
3207;SDS011;1616;52.394;9.756;2022-12-05T13:34:53;11.10;;;8.50;;
3207;SDS011;1616;52.394;9.756;2022-12-05T13:37:27;10.80;;;8.67;;
3207;SDS011;1616;52.394;9.756;2022-12-05T13:40:24;9.20;;;7.77;;
3207;SDS011;1616;52.394;9.756;2022-12-05T13:43:23;8.73;;;7.87;;
3207;SDS011;1616;52.394;9.756;2022-12-05T13:48:40;9.47;;;8.47;;
3207;SDS011;1616;52.394;9.756;2022-12-05T13:51:29;9.40;;;8.50;;
3207;SDS011;1616;52.394;9.756;2022-12-05T13:54:02;10.03;;;7.70;;
3207;SDS011;1616;52.394;9.756;2022-12-05T13:56:48;12.53;;;9.00;;
3207;SDS011;1616;52.394;9.756;2022-12-05T14:07:49;10.60;;;9.00;;
3207;SDS011;1616;52.394;9.756;2022-12-05T14:10:20;14.97;;;10.57;;
3207;SDS011;1616;52.394;9.756;2022-12-05T14:15:35;11.07;;;8.70;;
3207;SDS011;1616;52.394;9.756;2022-12-05T14:18:04;19.60;;;11.50;;
3207;SDS011;1616;52.394;9.756;2022-12-05T14:29:17;17.80;;;11.10;;
3207;SDS011;1616;52.394;9.756;2022-12-05T14:42:56;11.63;;;9.80;;
3207;SDS011;1616;52.394;9.756;2022-12-05T14:45:29;17.10;;;10.53;;
3207;SDS011;1616;52.394;9.756;2022-12-05T14:50:48;13.63;;;10.90;;
3207;SDS011;1616;52.394;9.756;2022-12-05T14:53:29;16.20;;;10.70;;
3207;SDS011;1616;52.394;9.756;2022-12-05T15:01:38;14.73;;;10.87;;
3207;SDS011;1616;52.394;9.756;2022-12-05T15:06:58;14.17;;;10.00;;
3207;SDS011;1616;52.394;9.756;2022-12-05T15:09:53;18.07;;;11.97;;
3207;SDS011;1616;52.394;9.756;2022-12-05T15:12:43;13.70;;;9.83;;
3207;SDS011;1616;52.394;9.756;2022-12-05T15:17:54;18.77;;;11.33;;
3207;SDS011;1616;52.394;9.756;2022-12-05T15:20:32;15.13;;;12.30;;
3207;SDS011;1616;52.394;9.756;2022-12-05T15:26:20;17.67;;;11.97;;
3207;SDS011;1616;52.394;9.756;2022-12-05T15:31:32;21.77;;;12.13;;
3207;SDS011;1616;52.394;9.756;2022-12-05T15:34:11;18.90;;;14.00;;
3207;SDS011;1616;52.394;9.756;2022-12-05T15:36:39;25.27;;;15.83;;
3207;SDS011;1616;52.394;9.756;2022-12-05T15:39:18;24.97;;;14.77;;
3207;SDS011;1616;52.394;9.756;2022-12-05T15:41:50;21.07;;;13.40;;
3207;SDS011;1616;52.394;9.756;2022-12-05T15:44:18;22.67;;;14.50;;
3207;SDS011;1616;52.394;9.756;2022-12-05T15:46:44;25.87;;;14.83;;
3207;SDS011;1616;52.394;9.756;2022-12-05T15:49:20;19.70;;;13.13;;
3207;SDS011;1616;52.394;9.756;2022-12-05T15:51:49;20.70;;;13.80;;
3207;SDS011;1616;52.394;9.756;2022-12-05T15:54:24;21.33;;;13.30;;
3207;SDS011;1616;52.394;9.756;2022-12-05T15:56:59;24.07;;;13.63;;
3207;SDS011;1616;52.394;9.756;2022-12-05T16:00:00;23.93;;;15.17;;
3207;SDS011;1616;52.394;9.756;2022-12-05T16:02:34;19.73;;;13.30;;
3207;SDS011;1616;52.394;9.756;2022-12-05T16:07:54;24.27;;;13.23;;
3207;SDS011;1616;52.394;9.756;2022-12-05T16:10:20;20.07;;;14.47;;
3207;SDS011;1616;52.394;9.756;2022-12-05T16:12:47;23.70;;;13.77;;
3207;SDS011;1616;52.394;9.756;2022-12-05T16:17:51;22.97;;;16.40;;
3207;SDS011;1616;52.394;9.756;2022-12-05T16:20:20;23.20;;;14.43;;
3207;SDS011;1616;52.394;9.756;2022-12-05T16:22:59;19.80;;;13.90;;
3207;SDS011;1616;52.394;9.756;2022-12-05T16:25:45;21.47;;;14.27;;
3207;SDS011;1616;52.394;9.756;2022-12-05T16:28:13;21.97;;;14.27;;
3207;SDS011;1616;52.394;9.756;2022-12-05T16:31:02;26.53;;;16.17;;
3207;SDS011;1616;52.394;9.756;2022-12-05T16:33:28;22.00;;;13.60;;
3207;SDS011;1616;52.394;9.756;2022-12-05T16:35:55;39.37;;;23.27;;
3207;SDS011;1616;52.394;9.756;2022-12-05T16:38:31;51.00;;;26.33;;
3207;SDS011;1616;52.394;9.756;2022-12-05T16:40:57;76.23;;;38.63;;
3207;SDS011;1616;52.394;9.756;2022-12-05T16:43:26;25.63;;;16.60;;
3207;SDS011;1616;52.394;9.756;2022-12-05T16:45:57;25.53;;;18.40;;
3207;SDS011;1616;52.394;9.756;2022-12-05T16:48:32;35.13;;;21.83;;
3207;SDS011;1616;52.394;9.756;2022-12-05T16:53:44;30.07;;;18.70;;
3207;SDS011;1616;52.394;9.756;2022-12-05T16:56:35;29.37;;;16.93;;
3207;SDS011;1616;52.394;9.756;2022-12-05T16:59:03;19.87;;;14.70;;
3207;SDS011;1616;52.394;9.756;2022-12-05T17:01:30;23.23;;;14.53;;
3207;SDS011;1616;52.394;9.756;2022-12-05T17:03:57;22.50;;;15.00;;
3207;SDS011;1616;52.394;9.756;2022-12-05T17:06:24;25.40;;;14.90;;
3207;SDS011;1616;52.394;9.756;2022-12-05T17:08:50;24.30;;;18.57;;
3207;SDS011;1616;52.394;9.756;2022-12-05T17:11:26;25.80;;;16.70;;
3207;SDS011;1616;52.394;9.756;2022-12-05T17:13:54;30.83;;;19.03;;
3207;SDS011;1616;52.394;9.756;2022-12-05T17:16:22;32.00;;;20.90;;
3207;SDS011;1616;52.394;9.756;2022-12-05T17:18:50;29.40;;;19.53;;
3207;SDS011;1616;52.394;9.756;2022-12-05T17:21:21;38.43;;;21.97;;
3207;SDS011;1616;52.394;9.756;2022-12-05T17:23:50;33.93;;;18.97;;
3207;SDS011;1616;52.394;9.756;2022-12-05T17:26:17;27.80;;;15.10;;
3207;SDS011;1616;52.394;9.756;2022-12-05T17:28:44;23.43;;;15.53;;
3207;SDS011;1616;52.394;9.756;2022-12-05T17:31:14;26.07;;;14.83;;
3207;SDS011;1616;52.394;9.756;2022-12-05T17:33:41;21.57;;;14.40;;
3207;SDS011;1616;52.394;9.756;2022-12-05T17:36:08;27.20;;;17.10;;
3207;SDS011;1616;52.394;9.756;2022-12-05T17:38:34;22.70;;;14.17;;
3207;SDS011;1616;52.394;9.756;2022-12-05T17:41:00;20.80;;;15.20;;
3207;SDS011;1616;52.394;9.756;2022-12-05T17:43:26;25.70;;;16.87;;
3207;SDS011;1616;52.394;9.756;2022-12-05T17:45:52;19.97;;;14.37;;
3207;SDS011;1616;52.394;9.756;2022-12-05T17:48:19;17.43;;;12.33;;
3207;SDS011;1616;52.394;9.756;2022-12-05T17:50:46;15.80;;;12.30;;
3207;SDS011;1616;52.394;9.756;2022-12-05T17:53:14;18.17;;;13.23;;
3207;SDS011;1616;52.394;9.756;2022-12-05T17:55:42;19.03;;;12.47;;
3207;SDS011;1616;52.394;9.756;2022-12-05T17:58:08;18.57;;;13.03;;
3207;SDS011;1616;52.394;9.756;2022-12-05T18:00:35;25.03;;;15.00;;
3207;SDS011;1616;52.394;9.756;2022-12-05T18:03:01;21.67;;;14.00;;
3207;SDS011;1616;52.394;9.756;2022-12-05T18:05:27;21.70;;;15.50;;
3207;SDS011;1616;52.394;9.756;2022-12-05T18:07:53;34.13;;;18.30;;
3207;SDS011;1616;52.394;9.756;2022-12-05T18:10:20;45.43;;;26.90;;
3207;SDS011;1616;52.394;9.756;2022-12-05T18:12:47;25.40;;;16.57;;
3207;SDS011;1616;52.394;9.756;2022-12-05T18:15:14;29.77;;;15.10;;
3207;SDS011;1616;52.394;9.756;2022-12-05T18:17:40;19.73;;;13.50;;
3207;SDS011;1616;52.394;9.756;2022-12-05T18:20:08;24.53;;;14.70;;
3207;SDS011;1616;52.394;9.756;2022-12-05T18:22:36;25.20;;;14.60;;
3207;SDS011;1616;52.394;9.756;2022-12-05T18:25:02;23.83;;;14.23;;
3207;SDS011;1616;52.394;9.756;2022-12-05T18:27:30;25.23;;;14.67;;